KMLE

Millard Airport

Omaha, Nebraska, USA
METAR KMLE 220955Z AUTO 00000KT 10SM CLR 16/14 A2998 RMK AO2 T01570139
Observed Flight Rules
May-22 @ 09:55 UTC (19 minutes ago) Visual Flight Rules
Visibility Clouds
10 miles
  • Clear skies
Temperatures Readings
Current 16°C / 61°F
Dewpoint 14°C / 57°F
Humidity 88%
Altimeter 29.98" Hg
Pressure 1015 hPa
Elevation 320
METAR KMLE 220955Z AUTO 00000KT 10SM CLR 16/14 A2998 RMK AO2 T01570139
Observed Flight Rules
May-22 @ 09:55 UTC
(19 minutes ago)
VFR
Clouds
  • Clear skies
Temperature Dewpoint
16°C / 61°F 14°C / 57°F
Humidity Altimeter Pressure
88% 29.98" Hg 1015 hPa